Bookmark and Share
Track history (hours):
 

David L. Griggs

More information available from US FCC via Universal Licensing System and Coast Guard Vessel Documentation Center.

Last reported at 2014-Apr-05 18:33 UTC. Time now 2014-Apr-23 07:23 UTC.
Position N 30°04' W 090°52'.
Warning: this ship's position is 17 days out of date.

Length 42 m; draft 3 m.

Type: Towing. MMSI: 367371510.

NotesDate/timePositionNaut miles runAvg speedWind from/ knotsBaromVisibWave heightAir tempDewpointWater temp
2014-Apr-05 18:33N 30°04' W 090°52'0 0.0
2014-Apr-05 17:33N 30°04' W 090°52'0 0.0
2014-Apr-05 16:33N 30°04' W 090°52'0 0.0
2014-Apr-05 13:17N 30°04' W 090°52'0 0.0
2014-Apr-05 12:33N 30°04' W 090°52'0 0.2
2014-Apr-05 11:33N 30°04' W 090°52'6 4.1
2014-Apr-05 10:11N 29°59' W 090°49'2 3.9
2014-Apr-05 09:33N 30°01' W 090°47'4 3.9
2014-Apr-05 08:33N 30°02' W 090°42'3 3.1
2014-Apr-05 07:33N 30°03' W 090°39'0 0.0
2014-Apr-05 06:33N 30°03' W 090°39'0 0.0
2014-Apr-05 05:33N 30°03' W 090°39'0 0.0
2014-Apr-05 04:33N 30°03' W 090°39'0 0.0
2014-Apr-05 03:33N 30°03' W 090°39'0 0.0
2014-Apr-05 02:33N 30°03' W 090°39'1 0.8
2014-Apr-05 01:33N 30°03' W 090°38'2 1.8
2014-Apr-05 00:33N 30°02' W 090°36'0 0.1
2014-Apr-04 23:33N 30°02' W 090°36'0 0.0
2014-Apr-04 22:33N 30°02' W 090°36'0 0.0
2014-Apr-04 21:29N 30°02' W 090°36'0 0.0
2014-Apr-04 20:24N 30°02' W 090°36'3 3.2
2014-Apr-04 19:33N 30°03' W 090°33'3 2.6
2014-Apr-04 18:33N 30°03' W 090°30'0 0.0
2014-Apr-04 17:31N 30°03' W 090°30'0 0.0
2014-Apr-04 16:32N 30°03' W 090°30'0 0.0
2014-Apr-04 15:33N 30°03' W 090°30'0 0.0
2014-Apr-04 14:33N 30°03' W 090°30'0 0.0
2014-Apr-04 13:31N 30°03' W 090°30'0 0.0
2014-Apr-04 12:33N 30°03' W 090°30'0 0.0
2014-Apr-04 11:33N 30°03' W 090°30'0 0.0
2014-Apr-04 10:33N 30°03' W 090°30'0 0.0
2014-Apr-04 09:33N 30°03' W 090°30'0 0.0
2014-Apr-04 08:33N 30°03' W 090°30'0 0.0
2014-Apr-04 07:33N 30°03' W 090°30'0 0.0
2014-Apr-04 06:33N 30°03' W 090°30'2 2.0
2014-Apr-04 05:33N 30°02' W 090°29'1 0.7
2014-Apr-04 04:33N 30°02' W 090°28'0 0.4
2014-Apr-04 03:33N 30°03' W 090°29'0 0.0
2014-Apr-04 02:33N 30°03' W 090°29'1 1.0
2014-Apr-04 01:33N 30°02' W 090°29'0 0.3
2014-Apr-04 00:33N 30°02' W 090°28'0 0.0
2014-Apr-03 23:33N 30°02' W 090°28'0 0.2
2014-Apr-03 22:33N 30°02' W 090°28'10 1.0
2014-Apr-03 13:03N 29°56' W 090°19'3 5.6
2014-Apr-03 12:33N 29°56' W 090°23'2 1.7
2014-Apr-03 11:32N 29°58' W 090°24'0 0.0
2014-Apr-03 10:26N 29°58' W 090°24'0 0.0
2014-Apr-03 09:30N 29°58' W 090°24'0 0.0
2014-Apr-03 08:33N 29°58' W 090°24'4 3.7
2014-Apr-03 07:33N 29°60' W 090°27'2 2.4
2014-Apr-03 06:33N 30°02' W 090°28'0 0.0
2014-Apr-03 05:33N 30°02' W 090°28'0 0.0
2014-Apr-03 04:33N 30°02' W 090°28'0 0.0
2014-Apr-03 03:33N 30°02' W 090°28'1 1.4
2014-Apr-03 02:33N 30°03' W 090°29'7 7.3
2014-Apr-03 01:33N 30°02' W 090°38'1 0.7
2014-Apr-03 00:33N 30°02' W 090°38'0 0.0
2014-Apr-02 23:33N 30°02' W 090°38'0 0.0
2014-Apr-02 22:33N 30°03' W 090°38'9 2.8
2014-Apr-02 19:13N 29°59' W 090°48'  

Dump ship's entire track history

sailing weather and tide predictions

David L. Griggs — WDE5778 — position and weather